createdAt,value
2023-05-14T00:00:02.073Z,75.59
2023-05-14T00:01:02.163Z,75.12
2023-05-14T00:02:02.287Z,74.13
2023-05-14T00:03:02.358Z,74.79
2023-05-14T00:04:02.473Z,74.99
2023-05-14T00:05:02.506Z,74.85
2023-05-14T00:06:02.586Z,73.17
2023-05-14T00:07:02.654Z,73.68
2023-05-14T00:08:02.713Z,73.74
2023-05-14T00:09:02.766Z,74.19
2023-05-14T00:10:02.865Z,75.05
2023-05-14T00:11:02.918Z,75.32
2023-05-14T00:12:03.008Z,74.92
2023-05-14T00:13:03.068Z,74.65
2023-05-14T00:14:03.152Z,76.00
2023-05-14T00:15:03.252Z,76.07
2023-05-14T00:16:03.360Z,75.73
2023-05-14T00:17:03.423Z,76.41
2023-05-14T00:18:03.516Z,75.86
2023-05-14T00:19:03.580Z,75.93
2023-05-14T00:20:03.639Z,75.93
2023-05-14T00:21:03.743Z,76.07
2023-05-14T00:22:03.837Z,77.04
2023-05-14T00:23:03.929Z,76.55
2023-05-14T00:24:03.988Z,77.25
2023-05-14T00:25:04.082Z,75.59
2023-05-14T00:26:04.185Z,76.21
2023-05-14T00:27:04.274Z,75.86
2023-05-14T00:28:04.316Z,75.86
2023-05-14T00:29:04.419Z,74.92
2023-05-14T00:30:04.506Z,75.19
2023-05-14T00:31:04.620Z,75.59
2023-05-14T00:32:04.688Z,75.73
2023-05-14T00:33:04.777Z,75.93
2023-05-14T00:34:04.835Z,75.66
2023-05-14T00:35:04.918Z,75.46
2023-05-14T00:36:05.011Z,75.93
2023-05-14T00:37:05.097Z,75.59
2023-05-14T00:38:05.213Z,75.66
2023-05-14T00:39:05.257Z,76.55
2023-05-14T00:40:05.331Z,75.93
2023-05-14T00:41:05.390Z,76.62
2023-05-14T00:42:05.483Z,78.18
2023-05-14T00:43:05.606Z,78.69
2023-05-14T00:44:05.655Z,79.28
2023-05-14T00:45:05.759Z,79.89
2023-05-14T00:46:05.850Z,80.80
2023-05-14T00:47:05.931Z,80.04
2023-05-14T00:48:06.058Z,80.57
2023-05-14T00:49:06.039Z,80.73
2023-05-14T00:50:06.128Z,80.04
2023-05-14T00:51:06.228Z,78.99
2023-05-14T00:52:06.287Z,78.69
2023-05-14T00:53:06.392Z,77.39
2023-05-14T00:54:06.458Z,75.73
2023-05-14T00:55:06.553Z,74.33
2023-05-14T00:56:06.606Z,72.66
2023-05-14T00:57:06.721Z,72.04
2023-05-14T00:58:06.799Z,71.49
2023-05-14T00:59:06.895Z,71.01
2023-05-14T01:00:06.989Z,71.55
2023-05-14T01:01:07.119Z,70.24
2023-05-14T01:02:07.156Z,69.83
2023-05-14T01:03:07.311Z,69.21
2023-05-14T01:04:07.422Z,68.47
2023-05-14T01:05:07.399Z,68.70
2023-05-14T01:06:07.480Z,67.87
2023-05-14T01:07:07.566Z,67.92
2023-05-14T01:08:07.645Z,67.33
2023-05-14T01:09:07.765Z,67.71
2023-05-14T01:10:07.815Z,67.65
2023-05-14T01:11:07.886Z,67.54
2023-05-14T01:12:07.941Z,67.27
2023-05-14T01:13:08.023Z,67.49
2023-05-14T01:14:08.128Z,67.38
2023-05-14T01:15:08.220Z,67.01
2023-05-14T01:16:08.319Z,66.85
2023-05-14T01:17:08.377Z,66.69
2023-05-14T01:18:08.525Z,66.01
2023-05-14T01:19:08.566Z,65.50
2023-05-14T01:20:08.613Z,64.79
2023-05-14T01:21:08.677Z,64.30
2023-05-14T01:22:08.786Z,64.35
2023-05-14T01:23:08.853Z,64.64
2023-05-14T01:24:08.925Z,64.74
2023-05-14T01:25:09.032Z,64.40
2023-05-14T01:26:09.081Z,64.60
2023-05-14T01:27:09.182Z,64.89
2023-05-14T01:28:09.239Z,64.11
2023-05-14T01:29:09.300Z,63.96
2023-05-14T01:30:09.399Z,63.67
2023-05-14T01:31:09.451Z,63.43
2023-05-14T01:32:09.548Z,62.77
2023-05-14T01:33:09.599Z,62.17
2023-05-14T01:34:09.688Z,62.17
2023-05-14T01:35:09.788Z,62.54
2023-05-14T01:36:09.872Z,62.17
2023-05-14T01:37:09.973Z,61.71
2023-05-14T01:38:10.066Z,61.99
2023-05-14T01:39:10.174Z,61.71
2023-05-14T01:40:10.261Z,61.09
2023-05-14T01:41:10.341Z,62.26
2023-05-14T01:42:10.404Z,62.31
2023-05-14T01:43:10.557Z,61.40
2023-05-14T01:44:10.572Z,61.76
2023-05-14T01:45:10.683Z,61.35
2023-05-14T01:46:10.784Z,61.67
2023-05-14T01:47:10.820Z,61.40
2023-05-14T01:48:11.020Z,60.87
2023-05-14T01:49:10.971Z,60.82
2023-05-14T01:50:11.002Z,59.87
2023-05-14T01:51:11.094Z,59.08
2023-05-14T01:52:11.193Z,58.42
2023-05-14T01:53:11.253Z,58.38
2023-05-14T01:54:11.336Z,58.18
2023-05-14T01:55:11.393Z,58.38
2023-05-14T01:56:11.487Z,58.54
2023-05-14T01:57:11.583Z,58.50
2023-05-14T01:58:11.645Z,57.78
2023-05-14T01:59:11.732Z,57.39
2023-05-14T02:00:11.807Z,57.27
2023-05-14T02:01:11.898Z,57.98
2023-05-14T02:02:11.992Z,58.71
2023-05-14T02:03:12.084Z,58.83
2023-05-14T02:04:12.171Z,59.04
2023-05-14T02:05:12.203Z,58.79
2023-05-14T02:06:12.272Z,59.12
2023-05-14T02:07:12.324Z,59.79
2023-05-14T02:08:12.427Z,60.04
2023-05-14T02:09:12.489Z,60.04
2023-05-14T02:10:12.587Z,59.49
2023-05-14T02:11:12.681Z,58.79
2023-05-14T02:12:12.779Z,58.99
2023-05-14T02:13:12.842Z,59.24
2023-05-14T02:14:12.936Z,59.45
2023-05-14T02:15:13.022Z,59.92
2023-05-14T02:16:13.218Z,60.22
2023-05-14T02:17:13.144Z,61.04
2023-05-14T02:18:13.420Z,61.49
2023-05-14T02:19:13.411Z,60.39
2023-05-14T02:20:13.408Z,60.47
2023-05-14T02:21:13.518Z,60.26
2023-05-14T02:22:13.581Z,60.30
2023-05-14T02:23:13.718Z,60.35
2023-05-14T02:24:13.768Z,59.87
2023-05-14T02:25:13.835Z,59.58
2023-05-14T02:26:13.910Z,59.08
2023-05-14T02:27:14.011Z,59.24
2023-05-14T02:28:14.059Z,58.63
2023-05-14T02:29:14.156Z,58.54
2023-05-14T02:30:14.273Z,58.46
2023-05-14T02:31:14.384Z,58.38
2023-05-14T02:32:14.443Z,58.30
2023-05-14T02:33:14.587Z,58.26
2023-05-14T02:34:14.599Z,57.74
2023-05-14T02:35:14.693Z,57.23
2023-05-14T02:36:14.777Z,56.77
2023-05-14T02:37:14.834Z,56.43
2023-05-14T02:38:14.916Z,55.54
2023-05-14T02:39:15.061Z,55.14
2023-05-14T02:40:15.103Z,55.32
2023-05-14T02:41:15.206Z,55.39
2023-05-14T02:42:15.307Z,55.28
2023-05-14T02:43:15.350Z,54.92
2023-05-14T02:44:15.459Z,54.50
2023-05-14T02:45:15.550Z,54.64
2023-05-14T02:46:15.655Z,54.46
2023-05-14T02:47:15.703Z,54.60
2023-05-14T02:48:15.820Z,54.78
2023-05-14T02:49:15.867Z,54.78
2023-05-14T02:50:15.964Z,54.15
2023-05-14T02:51:16.083Z,53.67
2023-05-14T02:52:16.144Z,54.01
2023-05-14T02:53:16.240Z,52.96
2023-05-14T02:54:16.424Z,52.66
2023-05-14T02:55:16.452Z,53.16
2023-05-14T02:56:16.465Z,53.06
2023-05-14T02:57:16.592Z,53.03
2023-05-14T02:58:16.644Z,53.53
2023-05-14T02:59:16.703Z,53.56
2023-05-14T03:00:16.812Z,53.84
2023-05-14T03:01:16.944Z,54.11
2023-05-14T03:02:17.004Z,54.25
2023-05-14T03:03:17.074Z,54.67
2023-05-14T03:04:17.110Z,54.82
2023-05-14T03:05:17.255Z,54.78
2023-05-14T03:06:17.348Z,54.92
2023-05-14T03:07:17.372Z,54.25
2023-05-14T03:08:17.472Z,54.08
2023-05-14T03:09:17.605Z,54.36
2023-05-14T03:10:17.671Z,53.94
2023-05-14T03:11:17.751Z,53.91
2023-05-14T03:12:17.889Z,54.22
2023-05-14T03:13:17.917Z,54.75
2023-05-14T03:14:18.017Z,55.10
2023-05-14T03:15:18.070Z,55.03
2023-05-14T03:16:18.161Z,54.82
2023-05-14T03:17:18.248Z,54.29
2023-05-14T03:18:18.292Z,54.04
2023-05-14T03:19:18.380Z,53.46
2023-05-14T03:20:18.484Z,53.43
2023-05-14T03:21:18.582Z,53.97
2023-05-14T03:22:18.643Z,54.15
2023-05-14T03:23:18.731Z,54.15
2023-05-14T03:24:18.830Z,53.77
2023-05-14T03:25:18.932Z,53.56
2023-05-14T03:26:18.978Z,53.67
2023-05-14T03:27:19.063Z,53.97
2023-05-14T03:28:19.150Z,54.96
2023-05-14T03:29:19.252Z,55.98
2023-05-14T03:30:19.352Z,55.87
2023-05-14T03:31:19.534Z,55.58
2023-05-14T03:32:19.594Z,54.75
2023-05-14T03:33:19.563Z,53.67
2023-05-14T03:34:19.642Z,54.71
2023-05-14T03:35:19.738Z,54.39
2023-05-14T03:36:19.840Z,53.94
2023-05-14T03:37:19.909Z,54.01
2023-05-14T03:38:19.968Z,54.22
2023-05-14T03:39:20.042Z,54.25
2023-05-14T03:40:20.134Z,54.36
2023-05-14T03:41:20.221Z,54.60
2023-05-14T03:42:20.319Z,54.78
2023-05-14T03:43:20.407Z,55.14
2023-05-14T03:44:20.464Z,55.43
2023-05-14T03:45:20.550Z,54.92
2023-05-14T03:46:20.607Z,54.11
2023-05-14T03:47:20.711Z,53.50
2023-05-14T03:48:20.908Z,54.32
2023-05-14T03:49:20.846Z,54.25
2023-05-14T03:50:20.955Z,54.18
2023-05-14T03:51:20.990Z,53.87
2023-05-14T03:52:21.121Z,54.29
2023-05-14T03:53:21.186Z,54.32
2023-05-14T03:54:21.255Z,55.36
2023-05-14T03:55:21.384Z,55.32
2023-05-14T03:56:21.444Z,56.06
2023-05-14T03:57:21.507Z,56.13
2023-05-14T03:58:21.604Z,56.21
2023-05-14T03:59:21.656Z,56.39
2023-05-14T04:00:21.951Z,56.35
2023-05-14T04:01:21.843Z,56.58
2023-05-14T04:02:21.946Z,56.28
2023-05-14T04:03:22.042Z,56.24
2023-05-14T04:04:22.100Z,56.62
2023-05-14T04:05:22.159Z,57.08
2023-05-14T04:06:22.215Z,57.23
2023-05-14T04:07:22.319Z,58.10
2023-05-14T04:08:22.395Z,58.10
2023-05-14T04:09:23.037Z,58.34
2023-05-14T04:10:22.851Z,58.30
2023-05-14T04:11:22.596Z,57.43
2023-05-14T04:12:22.653Z,57.78
2023-05-14T04:13:22.742Z,58.67
2023-05-14T04:14:22.826Z,58.75
2023-05-14T04:15:22.860Z,59.54
2023-05-14T04:16:22.978Z,59.33
2023-05-14T04:17:23.059Z,59.45
2023-05-14T04:18:23.128Z,58.91
2023-05-14T04:19:23.217Z,59.58
2023-05-14T04:20:23.514Z,59.83
2023-05-14T04:21:23.356Z,60.00
2023-05-14T04:22:23.452Z,60.74
2023-05-14T04:23:23.517Z,60.65
2023-05-14T04:24:23.578Z,60.35
2023-05-14T04:25:23.667Z,59.70
2023-05-14T04:26:23.775Z,60.30
2023-05-14T04:27:23.846Z,60.65
2023-05-14T04:28:23.920Z,61.18
2023-05-14T04:29:24.185Z,61.40
2023-05-14T04:30:24.349Z,61.18
2023-05-14T04:31:24.191Z,61.85
2023-05-14T04:32:24.268Z,63.10
2023-05-14T04:33:24.338Z,63.00
2023-05-14T04:34:24.417Z,63.24
2023-05-14T04:35:25.180Z,62.54
2023-05-14T04:36:24.567Z,63.05
2023-05-14T04:37:24.628Z,63.43
2023-05-14T04:38:24.718Z,64.15
2023-05-14T04:39:24.813Z,64.25
2023-05-14T04:40:25.179Z,64.25
2023-05-14T04:41:24.976Z,64.99
2023-05-14T04:42:25.068Z,65.65
2023-05-14T04:43:25.161Z,65.19
2023-05-14T04:44:25.209Z,64.99
2023-05-14T04:45:25.302Z,64.94
2023-05-14T04:46:25.386Z,63.62
2023-05-14T04:47:25.472Z,63.53
2023-05-14T04:48:25.543Z,63.48
2023-05-14T04:49:25.634Z,64.20
2023-05-14T04:50:26.007Z,64.69
2023-05-14T04:51:26.763Z,63.86
2023-05-14T04:52:25.893Z,64.64
2023-05-14T04:53:25.987Z,65.50
2023-05-14T04:54:26.115Z,65.75
2023-05-14T04:55:26.131Z,64.94
2023-05-14T04:56:26.236Z,65.04
2023-05-14T04:57:26.283Z,66.06
2023-05-14T04:58:26.372Z,66.53
2023-05-14T04:59:26.476Z,67.06
2023-05-14T05:00:26.684Z,67.01
2023-05-14T05:01:26.649Z,66.27
2023-05-14T05:02:26.742Z,66.27
2023-05-14T05:03:26.904Z,65.40
2023-05-14T05:04:26.861Z,64.99
2023-05-14T05:05:26.955Z,65.04
2023-05-14T05:06:27.073Z,65.35
2023-05-14T05:07:27.118Z,65.29
2023-05-14T05:08:27.196Z,65.50
2023-05-14T05:09:27.258Z,65.25
2023-05-14T05:10:27.341Z,64.99
2023-05-14T05:11:27.437Z,64.64
2023-05-14T05:12:27.494Z,64.20
2023-05-14T05:13:27.557Z,64.79
2023-05-14T05:14:27.669Z,64.40
2023-05-14T05:15:27.700Z,64.60
2023-05-14T05:16:27.841Z,64.99
2023-05-14T05:17:27.910Z,66.64
2023-05-14T05:18:28.000Z,66.48
2023-05-14T05:19:39.575Z,67.54
2023-05-14T05:20:28.130Z,67.60
2023-05-14T05:21:28.180Z,67.65
2023-05-14T05:22:28.255Z,67.71
2023-05-14T05:23:28.302Z,67.38
2023-05-14T05:24:28.399Z,68.03
2023-05-14T05:25:28.502Z,68.75
2023-05-14T05:26:28.585Z,68.81
2023-05-14T05:27:28.688Z,68.20
2023-05-14T05:28:28.768Z,67.54
2023-05-14T05:29:28.818Z,68.53
2023-05-14T05:30:28.902Z,69.26
2023-05-14T05:31:29.006Z,69.21
2023-05-14T05:32:29.150Z,68.03
2023-05-14T05:33:29.150Z,68.42
2023-05-14T05:34:29.236Z,68.31
2023-05-14T05:35:29.326Z,69.60
2023-05-14T05:36:29.435Z,68.87
2023-05-14T05:37:29.543Z,67.49
2023-05-14T05:38:29.581Z,65.29
2023-05-14T05:39:29.632Z,65.40
2023-05-14T05:40:29.735Z,64.60
2023-05-14T05:41:29.801Z,64.01
2023-05-14T05:42:29.916Z,64.64
2023-05-14T05:43:29.973Z,63.38
2023-05-14T05:44:30.050Z,64.40
2023-05-14T05:45:30.116Z,64.30
2023-05-14T05:46:30.261Z,64.45
2023-05-14T05:47:30.447Z,63.53
2023-05-14T05:48:30.403Z,62.63
2023-05-14T05:49:30.463Z,62.82
2023-05-14T05:50:30.551Z,62.17
2023-05-14T05:51:30.645Z,61.26
2023-05-14T05:52:30.759Z,62.49
2023-05-14T05:53:30.809Z,63.33
2023-05-14T05:54:30.901Z,63.38
2023-05-14T05:55:30.985Z,63.00
2023-05-14T05:56:31.048Z,62.44
2023-05-14T05:57:31.145Z,61.44
2023-05-14T05:58:31.244Z,61.09
2023-05-14T05:59:31.341Z,61.40
2023-05-14T06:00:31.451Z,61.67
2023-05-14T06:01:31.507Z,61.76
2023-05-14T06:02:31.733Z,62.86
2023-05-14T06:03:38.748Z,64.11
2023-05-14T06:04:31.732Z,63.91
2023-05-14T06:05:34.474Z,65.35
2023-05-14T06:06:32.710Z,66.22
2023-05-14T06:07:32.012Z,68.59
2023-05-14T06:08:32.114Z,69.21
2023-05-14T06:09:32.209Z,69.78
2023-05-14T06:10:33.875Z,70.89
2023-05-14T06:11:32.370Z,72.23
2023-05-14T06:12:32.474Z,70.83
2023-05-14T06:13:32.550Z,74.65
2023-05-14T06:14:32.658Z,79.89
2023-05-14T06:15:32.753Z,86.34
2023-05-14T06:16:32.872Z,88.61
2023-05-14T06:17:33.626Z,91.39
2023-05-14T06:18:32.999Z,94.25
2023-05-14T06:19:33.023Z,94.15
2023-05-14T06:20:33.142Z,94.36
2023-05-14T06:21:35.471Z,91.10
2023-05-14T06:22:33.547Z,93.42
2023-05-14T06:23:33.656Z,94.15
2023-05-14T06:24:33.459Z,90.12
2023-05-14T06:25:33.541Z,90.41
2023-05-14T06:26:33.724Z,90.41
2023-05-14T06:27:33.736Z,90.90
2023-05-14T06:28:33.816Z,93.83
2023-05-14T06:29:33.905Z,91.49
2023-05-14T06:30:34.910Z,91.29
2023-05-14T06:31:34.150Z,94.89
2023-05-14T06:32:34.789Z,95.39
2023-05-14T06:33:34.194Z,96.87
2023-05-14T06:34:34.290Z,100.27
2023-05-14T06:35:34.372Z,99.85
2023-05-14T06:36:34.460Z,101.78
2023-05-14T06:37:34.542Z,102.90
2023-05-14T06:38:34.627Z,104.29
2023-05-14T06:39:34.728Z,104.42
2023-05-14T06:40:34.759Z,108.10
2023-05-14T06:41:34.881Z,114.10
2023-05-14T06:42:34.905Z,123.90
2023-05-14T06:43:35.014Z,128.91
2023-05-14T06:44:35.074Z,130.21
2023-05-14T06:45:35.217Z,134.78
2023-05-14T06:46:35.272Z,136.97
2023-05-14T06:47:35.363Z,140.39
2023-05-14T06:48:35.410Z,143.86
2023-05-14T06:49:35.494Z,146.87
2023-05-14T06:50:35.572Z,145.47
2023-05-14T06:51:35.633Z,146.99
2023-05-14T06:52:35.715Z,146.10
2023-05-14T06:53:36.039Z,146.48
2023-05-14T06:54:35.897Z,150.94
2023-05-14T06:55:35.983Z,153.83
2023-05-14T06:56:36.033Z,159.65
2023-05-14T06:57:38.597Z,162.10
2023-05-14T06:58:36.185Z,163.99
2023-05-14T06:59:36.255Z,163.99
2023-05-14T07:00:36.580Z,163.20
2023-05-14T07:01:36.436Z,166.42
2023-05-14T07:02:36.513Z,167.74
2023-05-14T07:03:36.613Z,168.24
2023-05-14T07:04:36.742Z,163.04
2023-05-14T07:05:36.716Z,159.50
2023-05-14T07:06:37.028Z,169.94
2023-05-14T07:07:36.889Z,183.42
2023-05-14T07:08:36.915Z,187.62
2023-05-14T07:09:37.053Z,187.30
2023-05-14T07:10:37.086Z,186.56
2023-05-14T07:11:37.166Z,185.93
2023-05-14T07:12:37.280Z,186.46
2023-05-14T07:13:37.320Z,186.77
2023-05-14T07:14:37.648Z,182.43
2023-05-14T07:15:37.495Z,173.97
2023-05-14T07:16:37.615Z,184.02
2023-05-14T07:17:37.744Z,179.71
2023-05-14T07:18:37.758Z,178.57
2023-05-14T07:19:37.779Z,180.48
2023-05-14T07:20:37.896Z,180.10
2023-05-14T07:21:37.957Z,179.52
2023-05-14T07:22:38.009Z,177.63
2023-05-14T07:23:38.398Z,171.49
2023-05-14T07:24:38.206Z,169.60
2023-05-14T07:25:38.266Z,168.24
2023-05-14T07:26:39.954Z,171.32
2023-05-14T07:27:38.436Z,172.90
2023-05-14T07:28:38.565Z,173.61
2023-05-14T07:29:38.578Z,179.71
2023-05-14T07:30:38.701Z,185.83
2023-05-14T07:31:38.855Z,187.19
2023-05-14T07:32:38.868Z,182.83
2023-05-14T07:33:38.966Z,178.95
2023-05-14T07:34:39.292Z,176.89
2023-05-14T07:35:39.771Z,173.97
2023-05-14T07:36:39.180Z,169.94
2023-05-14T07:37:39.274Z,165.60
2023-05-14T07:38:39.700Z,159.20
2023-05-14T07:39:39.494Z,156.98
2023-05-14T07:40:39.542Z,152.58
2023-05-14T07:41:39.708Z,149.73
2023-05-14T07:42:39.671Z,151.35
2023-05-14T07:43:39.752Z,151.35
2023-05-14T07:44:39.851Z,145.73
2023-05-14T07:45:40.170Z,148.29
2023-05-14T07:46:40.007Z,149.60
2023-05-14T07:47:40.208Z,152.16
2023-05-14T07:48:40.235Z,151.62
2023-05-14T07:49:40.258Z,152.16
2023-05-14T07:50:40.450Z,155.82
2023-05-14T07:51:40.473Z,155.24
2023-05-14T07:52:40.519Z,151.89
2023-05-14T07:53:40.676Z,156.83
2023-05-14T07:54:40.715Z,158.60
2023-05-14T07:55:40.776Z,157.27
2023-05-14T07:56:40.901Z,155.39
2023-05-14T07:57:41.214Z,155.67
2023-05-14T07:58:41.033Z,156.68
2023-05-14T07:59:41.122Z,156.98
2023-05-14T08:00:41.175Z,152.71
2023-05-14T08:01:41.585Z,150.27
2023-05-14T08:02:41.396Z,144.73
2023-05-14T08:03:41.676Z,146.87
2023-05-14T08:04:41.481Z,148.03
2023-05-14T08:05:41.583Z,148.42
2023-05-14T08:06:41.647Z,145.98
2023-05-14T08:07:41.702Z,142.77
2023-05-14T08:08:42.047Z,143.62
2023-05-14T08:09:41.908Z,145.22
2023-05-14T08:10:42.048Z,144.73
2023-05-14T08:11:42.439Z,141.57
2023-05-14T08:12:42.423Z,141.10
2023-05-14T08:13:42.543Z,141.45
2023-05-14T08:14:42.379Z,140.27
2023-05-14T08:15:42.466Z,147.12
2023-05-14T08:16:42.529Z,148.55
2023-05-14T08:17:42.706Z,151.62
2023-05-14T08:18:42.777Z,150.27
2023-05-14T08:19:42.764Z,144.73
2023-05-14T08:20:43.123Z,138.89
2023-05-14T08:21:42.901Z,137.31
2023-05-14T08:22:43.016Z,135.76
2023-05-14T08:23:43.094Z,138.09
2023-05-14T08:24:43.216Z,145.47
2023-05-14T08:25:43.297Z,147.12
2023-05-14T08:26:43.383Z,147.64
2023-05-14T08:27:43.428Z,148.16
2023-05-14T08:28:43.525Z,145.60
2023-05-14T08:29:43.692Z,139.93
2023-05-14T08:30:43.695Z,135.87
2023-05-14T08:31:43.762Z,130.01
2023-05-14T08:32:43.900Z,127.74
2023-05-14T08:33:43.962Z,124.26
2023-05-14T08:34:44.141Z,124.63
2023-05-14T08:35:44.101Z,123.00
2023-05-14T08:36:44.188Z,125.09
2023-05-14T08:37:44.282Z,124.45
2023-05-14T08:38:44.402Z,123.90
2023-05-14T08:39:44.522Z,120.02
2023-05-14T08:40:44.549Z,118.34
2023-05-14T08:41:44.616Z,118.67
2023-05-14T08:42:44.748Z,117.43
2023-05-14T08:43:44.805Z,119.60
2023-05-14T08:44:44.898Z,120.45
2023-05-14T08:45:45.032Z,120.19
2023-05-14T08:46:45.074Z,117.51
2023-05-14T08:47:45.206Z,115.66
2023-05-14T08:48:45.281Z,117.02
2023-05-14T08:49:45.311Z,114.48
2023-05-14T08:50:45.443Z,113.25
2023-05-14T08:51:45.500Z,116.38
2023-05-14T08:52:45.598Z,119.60
2023-05-14T08:53:45.654Z,122.02
2023-05-14T08:54:45.747Z,122.37
2023-05-14T08:55:45.820Z,123.36
2023-05-14T08:56:45.945Z,125.65
2023-05-14T08:57:45.973Z,123.99
2023-05-14T08:58:46.023Z,124.17
2023-05-14T08:59:46.102Z,123.90
2023-05-14T09:00:46.199Z,125.09
2023-05-14T09:01:46.354Z,123.44
2023-05-14T09:02:46.408Z,124.54
2023-05-14T09:03:46.511Z,126.21
2023-05-14T09:04:46.507Z,129.91
2023-05-14T09:05:46.626Z,131.12
2023-05-14T09:06:46.936Z,130.61
2023-05-14T09:07:46.793Z,130.01
2023-05-14T09:08:46.889Z,128.42
2023-05-14T09:09:46.946Z,129.11
2023-05-14T09:10:46.987Z,129.31
2023-05-14T09:11:47.072Z,131.02
2023-05-14T09:12:47.144Z,132.87
2023-05-14T09:13:47.194Z,135.22
2023-05-14T09:14:47.284Z,135.87
2023-05-14T09:15:47.392Z,132.66
2023-05-14T09:16:47.537Z,129.81
2023-05-14T09:17:47.577Z,129.11
2023-05-14T09:18:47.752Z,131.32
2023-05-14T09:19:47.702Z,135.65
2023-05-14T09:20:47.795Z,136.86
2023-05-14T09:21:48.829Z,135.98
2023-05-14T09:22:47.922Z,135.22
2023-05-14T09:23:48.022Z,136.53
2023-05-14T09:24:48.112Z,135.32
2023-05-14T09:25:48.178Z,137.31
2023-05-14T09:26:48.278Z,139.12
2023-05-14T09:27:48.653Z,138.09
2023-05-14T09:28:48.428Z,133.93
2023-05-14T09:29:48.504Z,136.75
2023-05-14T09:30:48.574Z,135.87
2023-05-14T09:31:48.721Z,140.62
2023-05-14T09:32:48.780Z,140.74
2023-05-14T09:33:48.837Z,136.53
2023-05-14T09:34:48.928Z,131.73
2023-05-14T09:35:49.015Z,130.31
2023-05-14T09:36:49.076Z,132.15
2023-05-14T09:37:49.225Z,131.84
2023-05-14T09:38:49.242Z,130.31
2023-05-14T09:39:49.316Z,131.53
2023-05-14T09:40:49.405Z,133.40
2023-05-14T09:41:49.491Z,133.72
2023-05-14T09:42:49.594Z,134.68
2023-05-14T09:43:49.665Z,136.97
2023-05-14T09:44:49.740Z,136.64
2023-05-14T09:45:49.786Z,144.11
2023-05-14T09:46:50.079Z,145.10
2023-05-14T09:47:50.061Z,144.85
2023-05-14T09:48:50.020Z,147.64
2023-05-14T09:49:50.078Z,146.36
2023-05-14T09:50:50.160Z,146.99
2023-05-14T09:51:50.258Z,148.42
2023-05-14T09:52:50.323Z,144.73
2023-05-14T09:53:50.448Z,145.60
2023-05-14T09:54:50.514Z,147.64
2023-05-14T09:55:50.557Z,153.13
2023-05-14T09:56:50.726Z,153.83
2023-05-14T09:57:50.753Z,152.30
2023-05-14T09:58:50.839Z,148.68
2023-05-14T09:59:50.998Z,150.13
2023-05-14T10:00:51.063Z,155.53
2023-05-14T10:01:51.094Z,160.87
2023-05-14T10:02:51.239Z,162.89
2023-05-14T10:03:51.360Z,163.68
2023-05-14T10:04:51.437Z,165.77
2023-05-14T10:05:51.482Z,166.75
2023-05-14T10:06:51.588Z,167.91
2023-05-14T10:07:51.658Z,168.41
2023-05-14T10:08:51.755Z,168.75
2023-05-14T10:09:51.800Z,171.15
2023-05-14T10:10:51.923Z,168.92
2023-05-14T10:11:51.973Z,167.74
2023-05-14T10:12:52.089Z,166.75
2023-05-14T10:13:52.124Z,171.67
2023-05-14T10:14:52.280Z,175.05
2023-05-14T10:15:52.339Z,177.26
2023-05-14T10:16:52.469Z,179.33
2023-05-14T10:17:52.474Z,183.22
2023-05-14T10:18:53.249Z,176.15
2023-05-14T10:19:52.630Z,166.26
2023-05-14T10:20:52.697Z,168.75
2023-05-14T10:21:52.792Z,168.92
2023-05-14T10:22:52.917Z,166.58
2023-05-14T10:23:53.014Z,167.08
2023-05-14T10:24:53.056Z,166.09
2023-05-14T10:25:53.156Z,163.04
2023-05-14T10:26:53.224Z,165.12
2023-05-14T10:27:53.315Z,165.44
2023-05-14T10:28:53.408Z,163.68
2023-05-14T10:29:53.542Z,163.36
2023-05-14T10:30:53.646Z,165.77
2023-05-14T10:31:53.697Z,164.79
2023-05-14T10:32:53.826Z,167.58
2023-05-14T10:33:53.839Z,160.56
2023-05-14T10:34:54.005Z,158.30
2023-05-14T10:35:54.031Z,156.68
2023-05-14T10:36:54.097Z,161.48
2023-05-14T10:37:54.114Z,166.42
2023-05-14T10:38:54.218Z,168.41
2023-05-14T10:39:54.301Z,166.58
2023-05-14T10:40:54.446Z,174.69
2023-05-14T10:41:54.503Z,173.79
2023-05-14T10:42:54.568Z,180.10
2023-05-14T10:43:54.618Z,183.03
2023-05-14T10:44:54.698Z,179.71
2023-05-14T10:45:54.767Z,170.97
2023-05-14T10:46:54.900Z,167.41
2023-05-14T10:47:55.005Z,165.12
2023-05-14T10:48:55.039Z,165.60
2023-05-14T10:49:55.123Z,169.60
2023-05-14T10:50:55.272Z,173.25
2023-05-14T10:51:55.291Z,173.43
2023-05-14T10:52:55.381Z,173.97
2023-05-14T10:53:55.488Z,174.51
2023-05-14T10:54:55.541Z,175.23
2023-05-14T10:55:55.654Z,178.76
2023-05-14T10:56:55.745Z,185.52
2023-05-14T10:57:55.801Z,188.58
2023-05-14T10:58:55.890Z,188.90
2023-05-14T10:59:56.002Z,183.42
2023-05-14T11:00:56.039Z,176.89
2023-05-14T11:01:56.188Z,168.41
2023-05-14T11:02:56.376Z,161.02
2023-05-14T11:03:56.326Z,170.11
2023-05-14T11:04:56.380Z,183.42
2023-05-14T11:05:56.471Z,188.26
2023-05-14T11:06:56.527Z,189.01
2023-05-14T11:07:56.626Z,190.20
2023-05-14T11:08:56.753Z,194.89
2023-05-14T11:09:56.811Z,191.96
2023-05-14T11:10:56.889Z,190.20
2023-05-14T11:11:56.984Z,190.64
2023-05-14T11:12:57.032Z,185.03
2023-05-14T11:13:57.166Z,178.95
2023-05-14T11:14:57.233Z,183.22
2023-05-14T11:15:57.307Z,185.03
2023-05-14T11:16:57.408Z,189.12
2023-05-14T11:17:57.576Z,189.87
2023-05-14T11:18:57.587Z,188.15
2023-05-14T11:19:57.620Z,183.62
2023-05-14T11:20:57.756Z,185.42
2023-05-14T11:21:57.799Z,182.43
2023-05-14T11:22:57.895Z,184.22
2023-05-14T11:23:58.044Z,180.87
2023-05-14T11:24:58.073Z,184.22
2023-05-14T11:25:58.239Z,193.30
2023-05-14T11:26:58.274Z,197.79
2023-05-14T11:27:58.347Z,202.50
2023-05-14T11:28:58.461Z,202.50
2023-05-14T11:29:59.350Z,203.00
2023-05-14T11:30:58.574Z,206.67
2023-05-14T11:31:58.738Z,209.93
2023-05-14T11:33:00.690Z,212.22
2023-05-14T11:33:58.814Z,209.93
2023-05-14T11:34:58.913Z,204.50
2023-05-14T11:35:59.038Z,198.39
2023-05-14T11:36:59.089Z,187.30
2023-05-14T11:37:59.146Z,166.26
2023-05-14T11:38:59.277Z,149.60
2023-05-14T11:39:59.302Z,140.51
2023-05-14T11:40:59.402Z,133.08
2023-05-14T11:41:59.520Z,127.45
2023-05-14T11:42:59.564Z,127.74
2023-05-14T11:43:59.692Z,126.59
2023-05-14T11:44:59.792Z,123.63
2023-05-14T11:45:59.836Z,123.36
2023-05-14T11:46:59.899Z,124.82
2023-05-14T11:47:59.992Z,125.00
2023-05-14T11:49:00.001Z,125.46
2023-05-14T11:50:00.165Z,124.08
2023-05-14T11:51:00.206Z,124.26
2023-05-14T11:52:00.260Z,127.94
2023-05-14T11:53:00.374Z,133.29
2023-05-14T11:54:00.463Z,135.32
2023-05-14T11:55:00.518Z,140.16
2023-05-14T11:56:00.584Z,141.45
2023-05-14T11:57:00.685Z,143.13
2023-05-14T11:58:00.741Z,142.04
2023-05-14T11:59:00.814Z,146.74
2023-05-14T12:00:00.916Z,150.94
2023-05-14T12:01:00.963Z,154.67
2023-05-14T12:02:01.017Z,157.12
2023-05-14T12:03:01.229Z,157.42
2023-05-14T12:04:01.299Z,150.27
2023-05-14T12:05:01.301Z,150.40
2023-05-14T12:06:01.427Z,145.60
2023-05-14T12:07:01.489Z,143.86
2023-05-14T12:08:01.563Z,137.98
2023-05-14T12:09:01.698Z,141.81
2023-05-14T12:10:01.685Z,143.37
2023-05-14T12:11:01.750Z,141.45
2023-05-14T12:12:01.868Z,140.04
2023-05-14T12:13:01.946Z,138.55
2023-05-14T12:14:02.046Z,136.53
2023-05-14T12:15:02.113Z,133.40
2023-05-14T12:16:02.381Z,128.91
2023-05-14T12:17:02.234Z,126.59
2023-05-14T12:18:02.983Z,123.08
2023-05-14T12:19:02.481Z,123.54
2023-05-14T12:20:02.473Z,122.82
2023-05-14T12:21:02.558Z,119.76
2023-05-14T12:22:02.713Z,118.59
2023-05-14T12:23:02.730Z,117.76
2023-05-14T12:24:02.843Z,117.35
2023-05-14T12:25:02.936Z,115.74
2023-05-14T12:26:02.996Z,117.19
2023-05-14T12:27:03.051Z,115.50
2023-05-14T12:28:03.146Z,115.90
2023-05-14T12:29:03.248Z,112.95
2023-05-14T12:30:16.773Z,114.95
2023-05-14T12:31:03.473Z,114.95
2023-05-14T12:32:03.476Z,113.79
2023-05-14T12:33:03.605Z,113.87
2023-05-14T12:34:03.646Z,112.57
2023-05-14T12:35:03.724Z,112.35
2023-05-14T12:37:03.887Z,116.06
2023-05-14T12:38:03.959Z,116.06
2023-05-14T12:39:04.012Z,111.75
2023-05-14T12:40:04.148Z,111.39
2023-05-14T12:41:04.178Z,110.65
2023-05-14T12:42:04.271Z,111.31